LFKF/FSC METAR and TAF weather

Enter ICAO airport designator
Station Type Date Time Source
LFKF METAR 2020/07/06 09:30 UTC NOAA

LFKF 060930Z AUTO 20009KT 170V240 CAVOK 27/20 Q1011 TEMPO 24015G25KT


Station Type Date Time Source
LFKF Decoded METAR 2020/07/06 09:30 UTC NOAA

Figari, France (LFKF) 41-30N 009-06E 23M
Jul 06, 2020 - 05:30 AM EDT / 2020.07.06 0930 UTC
Wind: from the SSW (200 degrees) at 10 MPH (9 KT) (direction variable):0
Visibility: greater than 7 mile(s):0
Temperature: 80 F (27 C)
Dew Point: 68 F (20 C)
Relative Humidity: 65%
Pressure (altimeter): 29.85 in. Hg (1011 hPa)
ob: LFKF 060930Z AUTO 20009KT 170V240 CAVOK 27/20 Q1011 TEMPO 24015G25KT
cycle: 9

Station Type Date Time Source
LFKF TAF 2020/07/06 09:47 UTC NOAA

TAF LFKF 060800Z 0609/0709 22012KT CAVOK
TEMPO 0610/0618 24015G25KT
BECMG 0623/0701 24005KT

Example: see airport list